Time;durP1;ratioP1;P1;durP2;ratioP2;P2;SDS_P1;SDS_P2;PMS_P1;PMS_P2;Temp;Humidity;BMP_temperature;BMP_pressure;BME280_temperature;BME280_humidity;BME280_pressure;Samples;Min_cycle;Max_cycle;Signal;HPM_P1;HPM_P2
2023/08/11 00:00:08;;;;;;;4.87;4.53;;;;;;;15.84;84.25;101760.03;5016315;28;20196;-67
2023/08/11 00:02:38;;;;;;;5.30;5.10;;;;;;;15.84;84.47;101753.78;5016372;28;20599;-67
2023/08/11 00:05:11;;;;;;;5.97;5.67;;;;;;;15.82;84.41;101753.13;5016140;28;20216;-67
2023/08/11 00:07:37;;;;;;;5.53;5.43;;;;;;;15.81;84.51;101759.53;5016489;28;20192;-67
2023/08/11 00:10:05;;;;;;;6.83;5.50;;;;;;;15.77;84.35;101753.63;5016410;28;20721;-67
2023/08/11 00:12:32;;;;;;;16.33;5.73;;;;;;;15.77;84.50;101758.16;5015997;28;20218;-67
2023/08/11 00:14:58;;;;;;;8.53;5.30;;;;;;;15.72;84.54;101749.69;5015978;28;20208;-67
2023/08/11 00:17:25;;;;;;;6.07;5.37;;;;;;;15.70;85.32;101754.41;5016032;28;20195;-67
2023/08/11 00:19:51;;;;;;;7.33;5.00;;;;;;;15.68;85.29;101756.41;5016218;28;20199;-67
2023/08/11 00:22:18;;;;;;;4.73;4.73;;;;;;;15.68;84.97;101761.81;5016198;28;20192;-67
2023/08/11 00:24:44;;;;;;;5.37;4.90;;;;;;;15.66;84.81;101764.66;5015735;28;20212;-67
2023/08/11 00:27:11;;;;;;;5.23;4.93;;;;;;;15.65;85.45;101764.81;5016082;28;20283;-67
2023/08/11 00:29:37;;;;;;;5.33;5.07;;;;;;;15.65;85.52;101748.66;5015790;28;20243;-67
2023/08/11 00:32:04;;;;;;;5.67;5.10;;;;;;;15.64;84.86;101757.75;5015779;28;20239;-67
2023/08/11 00:34:31;;;;;;;4.37;4.37;;;;;;;15.56;84.67;101757.69;5014694;28;20213;-67
2023/08/11 00:36:57;;;;;;;10.90;6.07;;;;;;;15.46;84.93;101758.59;5015909;28;20559;-67
2023/08/11 00:39:24;;;;;;;4.33;4.20;;;;;;;15.42;85.13;101751.00;5015609;28;20185;-67
2023/08/11 00:41:50;;;;;;;4.80;4.47;;;;;;;15.41;85.56;101755.53;5015529;28;20188;-67
2023/08/11 00:44:17;;;;;;;5.53;4.47;;;;;;;15.42;85.02;101749.16;5014118;28;20220;-67
2023/08/11 00:46:45;;;;;;;5.20;4.90;;;;;;;15.40;85.17;101745.75;5014213;28;20193;-67
2023/08/11 00:49:13;;;;;;;6.40;5.90;;;;;;;15.40;85.30;101747.63;5015414;28;20231;-67
2023/08/11 00:51:41;;;;;;;5.33;5.03;;;;;;;15.40;85.68;101747.63;5015350;28;20185;-67
2023/08/11 00:54:10;;;;;;;5.03;4.67;;;;;;;15.41;85.39;101735.81;5013987;28;20208;-67
2023/08/11 00:56:41;;;;;;;9.93;5.30;;;;;;;15.40;85.49;101737.66;5013962;28;20207;-67
2023/08/11 00:59:09;;;;;;;4.80;4.53;;;;;;;15.42;85.64;101737.50;5014860;28;20563;-67
2023/08/11 01:01:36;;;;;;;5.50;5.23;;;;;;;15.40;85.46;101734.16;5013941;28;20211;-67
2023/08/11 01:04:04;;;;;;;5.30;5.07;;;;;;;15.38;85.51;101730.75;5014501;28;20228;-67
2023/08/11 01:06:41;;;;;;;3.97;3.77;;;;;;;15.36;85.67;101736.28;5015373;28;20670;-67
2023/08/11 01:09:19;;;;;;;4.80;4.70;;;;;;;15.34;85.88;101732.91;5015374;28;20275;-67
2023/08/11 01:12:23;;;;;;;4.73;4.63;;;;;;;15.36;85.69;101727.38;5015280;28;20200;-66
2023/08/11 01:15:13;;;;;;;4.70;4.60;;;;;;;15.36;85.71;101728.22;5014850;28;20576;-66
2023/08/11 01:17:41;;;;;;;5.00;4.80;;;;;;;15.33;85.81;101723.13;5014905;28;20185;-66
2023/08/11 01:20:11;;;;;;;7.87;5.50;;;;;;;15.31;85.87;101719.78;5015095;28;20200;-66
2023/08/11 01:22:43;;;;;;;5.90;5.70;;;;;;;15.32;85.80;101720.63;5015103;28;20222;-66
2023/08/11 01:25:11;;;;;;;6.03;5.57;;;;;;;15.32;86.01;101717.94;5013920;28;20228;-67
2023/08/11 01:27:54;;;;;;;5.60;5.30;;;;;;;15.30;86.04;101717.22;5015010;28;20586;-67
2023/08/11 01:30:21;;;;;;;4.60;4.30;;;;;;;15.27;86.02;101720.25;5014702;28;20181;-67
2023/08/11 01:32:47;;;;;;;5.43;5.30;;;;;;;15.24;85.83;101724.09;5013391;28;20197;-67
2023/08/11 01:35:14;;;;;;;4.77;4.67;;;;;;;15.23;85.73;101718.88;5014480;28;20682;-67
2023/08/11 01:37:51;;;;;;;5.80;5.50;;;;;;;15.21;85.98;101719.03;5014848;28;20188;-66
2023/08/11 01:40:18;;;;;;;5.27;5.17;;;;;;;15.18;85.94;101713.09;5014700;28;20201;-66
2023/08/11 01:42:45;;;;;;;4.80;4.70;;;;;;;15.13;86.02;101716.28;5014473;28;20640;-66
2023/08/11 01:45:22;;;;;;;4.90;4.73;;;;;;;15.15;85.95;101716.13;5014298;28;20210;-67
2023/08/11 01:47:50;;;;;;;6.23;5.83;;;;;;;15.15;85.97;101722.31;5014353;28;20616;-67
2023/08/11 01:50:18;;;;;;;9.17;6.17;;;;;;;15.09;85.86;101721.13;5014341;28;20619;-67
2023/08/11 01:52:47;;;;;;;7.93;5.80;;;;;;;15.05;85.84;101717.06;5014249;28;20192;-67
2023/08/11 01:55:14;;;;;;;6.07;5.03;;;;;;;15.04;85.71;101717.19;5014167;28;20219;-67
2023/08/11 01:57:41;;;;;;;6.90;5.03;;;;;;;15.02;85.91;101714.66;5012963;28;20200;-67
2023/08/11 02:00:23;;;;;;;6.13;5.73;;;;;;;15.00;86.10;101710.44;5013169;28;20227;-67
2023/08/11 02:02:50;;;;;;;5.50;5.13;;;;;;;15.00;85.78;101711.28;5012868;28;20567;-67
2023/08/11 02:05:16;;;;;;;4.97;4.77;;;;;;;14.99;85.71;101714.97;5012672;28;20220;-67
2023/08/11 02:07:45;;;;;;;5.03;4.73;;;;;;;14.99;85.91;101714.13;5012790;28;20193;-67
2023/08/11 02:10:12;;;;;;;4.67;4.57;;;;;;;14.99;86.21;101711.44;5014102;28;20188;-67
2023/08/11 02:12:40;;;;;;;5.80;5.33;;;;;;;14.95;86.01;101702.81;5012995;28;20204;-67
2023/08/11 02:15:08;;;;;;;6.57;6.37;;;;;;;14.90;86.03;101706.97;5013142;28;20236;-67
2023/08/11 02:17:35;;;;;;;6.47;6.20;;;;;;;14.87;86.34;101693.84;5013875;28;20185;-66
2023/08/11 02:20:13;;;;;;;6.23;6.03;;;;;;;14.90;86.69;101696.22;5014122;28;20192;-66
2023/08/11 02:22:40;;;;;;;14.40;6.40;;;;;;;14.91;86.84;101692.53;5014121;28;20169;-66
2023/08/11 02:25:07;;;;;;;7.67;6.93;;;;;;;14.94;87.06;101689.50;5013654;28;20213;-66
2023/08/11 02:27:35;;;;;;;6.37;6.13;;;;;;;14.97;87.08;101694.59;5012483;28;20267;-66
2023/08/11 02:30:05;;;;;;;7.17;6.90;;;;;;;15.00;87.17;101694.28;5013718;28;20547;-66
2023/08/11 02:32:32;;;;;;;7.00;6.60;;;;;;;15.02;87.16;101692.28;5013664;28;20561;-66
2023/08/11 02:34:59;;;;;;;6.67;6.47;;;;;;;15.05;86.98;101692.81;5012298;28;20267;-66
2023/08/11 02:37:25;;;;;;;6.07;5.97;;;;;;;15.05;86.89;101692.81;5012356;28;20196;-66
2023/08/11 02:39:52;;;;;;;6.27;5.77;;;;;;;15.06;87.34;101688.28;5013596;28;20188;-66
2023/08/11 02:42:18;;;;;;;5.93;5.70;;;;;;;15.08;86.95;101691.66;5012315;28;20196;-66
2023/08/11 02:44:45;;;;;;;6.07;5.87;;;;;;;15.09;87.05;101693.34;5013416;28;20300;-66
2023/08/11 02:47:11;;;;;;;6.20;5.90;;;;;;;15.08;87.11;101683.56;5013482;28;20191;-66
2023/08/11 02:49:38;;;;;;;6.10;5.90;;;;;;;15.08;86.91;101686.25;5013764;28;20185;-66
2023/08/11 02:52:05;;;;;;;5.57;5.13;;;;;;;15.07;86.92;101682.72;5014010;28;20184;-66
2023/08/11 02:54:32;;;;;;;5.70;5.50;;;;;;;15.07;87.13;101681.88;5013372;28;20196;-67
2023/08/11 02:56:59;;;;;;;5.13;4.83;;;;;;;15.04;86.90;101679.50;5012198;28;20552;-67
2023/08/11 02:59:25;;;;;;;6.43;5.97;;;;;;;15.03;87.08;101673.25;5013946;28;20547;-67
2023/08/11 03:01:51;;;;;;;5.57;5.27;;;;;;;15.01;87.04;101682.50;5013333;28;20659;-66
2023/08/11 03:04:18;;;;;;;6.40;5.80;;;;;;;15.00;87.17;101686.22;5011984;28;20243;-66
2023/08/11 03:06:47;;;;;;;5.37;5.27;;;;;;;14.95;86.65;101683.97;5012051;28;20192;-66
2023/08/11 03:09:14;;;;;;;5.43;5.20;;;;;;;14.86;86.65;101686.75;5028476;28;20224;-66
2023/08/11 03:11:41;;;;;;;4.67;4.67;;;;;;;14.82;86.55;101685.38;5011907;28;20204;-66
2023/08/11 03:14:07;;;;;;;5.43;5.27;;;;;;;14.80;86.56;101682.00;5011946;28;20220;-67
2023/08/11 03:16:34;;;;;;;5.23;5.13;;;;;;;14.76;86.61;101677.94;5012000;28;20206;-67
2023/08/11 03:19:01;;;;;;;6.63;6.13;;;;;;;14.73;86.83;101676.38;5011974;28;20196;-67
2023/08/11 03:21:28;;;;;;;5.37;5.20;;;;;;;14.72;86.91;101676.56;5011970;28;20184;-67
2023/08/11 03:23:55;;;;;;;6.03;5.93;;;;;;;14.73;86.49;101672.84;5014629;28;20745;-67
2023/08/11 03:26:21;;;;;;;7.10;6.53;;;;;;;14.75;86.79;101673.56;5015736;28;20192;-66
2023/08/11 03:28:48;;;;;;;5.73;5.60;;;;;;;14.76;86.99;101673.41;5016484;28;20199;-66
2023/08/11 03:31:15;;;;;;;5.43;5.37;;;;;;;14.78;87.06;101667.84;5016201;28;20193;-66
2023/08/11 03:33:44;;;;;;;6.37;5.50;;;;;;;14.80;86.91;101673.94;5015547;28;20266;-66
2023/08/11 03:36:12;;;;;;;6.97;6.27;;;;;;;14.83;87.14;101668.22;5015524;28;20195;-66
2023/08/11 03:38:41;;;;;;;6.40;5.83;;;;;;;14.83;87.26;101665.53;5015542;28;20274;-66
2023/08/11 03:41:07;;;;;;;6.80;6.33;;;;;;;14.82;87.17;101664.69;5017265;28;20188;-66
2023/08/11 03:43:35;;;;;;;6.10;5.73;;;;;;;14.84;87.16;101670.78;5015347;28;20655;-67
2023/08/11 03:46:02;;;;;;;7.60;5.73;;;;;;;14.83;87.10;101669.06;5031792;28;20255;-67
2023/08/11 03:48:28;;;;;;;6.00;5.90;;;;;;;14.84;87.27;101675.31;5015303;28;20195;-67
2023/08/11 03:51:02;;;;;;;5.37;5.17;;;;;;;14.82;87.28;101675.47;5015324;28;20223;-67
2023/08/11 03:53:30;;;;;;;7.30;7.00;;;;;;;14.81;86.93;101679.16;5016435;28;20299;-67
2023/08/11 03:55:57;;;;;;;6.83;6.43;;;;;;;14.78;87.28;101682.16;5015157;28;20659;-67
2023/08/11 03:58:26;;;;;;;4.83;4.63;;;;;;;14.77;86.86;101676.91;5015125;28;20689;-67
2023/08/11 04:00:54;;;;;;;8.80;5.63;;;;;;;14.73;87.13;101676.38;5015114;28;20650;-66
2023/08/11 04:03:22;;;;;;;5.63;5.43;;;;;;;14.73;87.36;101675.53;5014995;28;20295;-67
2023/08/11 04:05:49;;;;;;;7.53;6.03;;;;;;;14.75;87.29;101690.56;5014924;28;20219;-67
2023/08/11 04:08:16;;;;;;;10.77;6.00;;;;;;;14.77;87.02;101685.00;5016455;28;20195;-67
2023/08/11 04:10:43;;;;;;;6.17;5.83;;;;;;;14.77;87.25;101683.16;5014897;28;20196;-67
2023/08/11 04:13:09;;;;;;;6.17;6.07;;;;;;;14.74;87.14;101683.47;5015893;28;20197;-67
2023/08/11 04:15:36;;;;;;;5.73;5.43;;;;;;;14.73;87.38;101683.63;5016364;28;20184;-67
2023/08/11 04:18:02;;;;;;;6.13;5.70;;;;;;;14.70;87.23;101679.41;5014769;28;20196;-67
2023/08/11 04:20:29;;;;;;;6.00;5.43;;;;;;;14.70;87.35;101682.09;5016256;28;20189;-67
2023/08/11 04:22:56;;;;;;;5.37;5.27;;;;;;;14.71;87.27;101674.88;5014678;28;20243;-67
2023/08/11 04:25:24;;;;;;;7.00;6.50;;;;;;;14.70;87.21;101682.09;5014472;28;20303;-67
2023/08/11 04:27:51;;;;;;;10.83;6.60;;;;;;;14.64;87.31;101671.94;5014572;28;20211;-66
2023/08/11 04:30:17;;;;;;;7.50;6.93;;;;;;;14.60;87.34;101674.09;5014576;28;20235;-66
2023/08/11 04:32:46;;;;;;;6.40;6.20;;;;;;;14.58;87.23;101683.34;5014505;28;20613;-66
2023/08/11 04:35:14;;;;;;;5.43;5.20;;;;;;;14.59;87.55;101674.25;5013308;28;20222;-67
2023/08/11 04:37:41;;;;;;;6.90;6.53;;;;;;;14.59;87.58;101668.88;5016186;28;20177;-66
2023/08/11 04:40:10;;;;;;;7.47;6.90;;;;;;;14.60;87.52;101670.56;5014599;28;20572;-66
2023/08/11 04:42:43;;;;;;;7.47;7.03;;;;;;;14.66;87.45;101663.72;5014286;28;20184;-66
2023/08/11 04:45:14;;;;;;;11.13;6.37;;;;;;;14.67;87.15;101670.78;5014962;28;20217;-66
2023/08/11 04:47:41;;;;;;;6.80;6.40;;;;;;;14.66;87.51;101663.72;5015702;28;20227;-65
2023/08/11 04:50:12;;;;;;;7.07;6.53;;;;;;;14.72;87.69;101671.19;5014162;28;20203;-65
2023/08/11 04:52:38;;;;;;;6.43;6.23;;;;;;;14.73;87.79;101664.78;5014101;28;20188;-65
2023/08/11 04:55:07;;;;;;;6.87;6.37;;;;;;;14.76;87.56;101668.03;5015296;28;20200;-66
2023/08/11 04:57:34;;;;;;;6.47;6.17;;;;;;;14.80;87.73;101665.88;5014064;28;20243;-66
2023/08/11 05:00:06;;;;;;;7.30;6.77;;;;;;;14.85;87.75;101666.25;5030481;28;20197;-66
2023/08/11 05:02:33;;;;;;;6.70;6.30;;;;;;;14.91;87.57;101669.13;5015172;28;20180;-66
2023/08/11 05:04:59;;;;;;;7.43;7.13;;;;;;;14.96;87.83;101669.53;5014968;28;20223;-65
2023/08/11 05:07:26;;;;;;;8.10;6.50;;;;;;;15.02;87.59;101671.56;5015140;28;20196;-65
2023/08/11 05:09:52;;;;;;;6.90;6.60;;;;;;;15.08;88.01;101672.78;5015560;28;20247;-66
2023/08/11 05:12:19;;;;;;;7.20;6.80;;;;;;;15.16;87.43;101663.91;5015154;28;20200;-66
2023/08/11 05:14:47;;;;;;;6.97;6.57;;;;;;;15.24;87.62;101674.75;5014989;28;20200;-66
2023/08/11 05:17:14;;;;;;;8.27;6.83;;;;;;;15.32;87.38;101681.03;5015171;28;20189;-66
2023/08/11 05:19:40;;;;;;;7.80;7.50;;;;;;;15.37;87.20;101675.16;5014806;28;20181;-66
2023/08/11 05:22:06;;;;;;;7.70;7.07;;;;;;;15.45;86.76;101681.44;5015268;28;20191;-66
2023/08/11 05:24:33;;;;;;;7.13;6.80;;;;;;;15.51;86.75;101675.47;5014690;28;20558;-66
2023/08/11 05:26:59;;;;;;;6.67;6.30;;;;;;;15.58;86.70;101666.72;5014655;28;20197;-66
2023/08/11 05:29:26;;;;;;;7.17;6.80;;;;;;;15.66;86.47;101674.88;5014676;28;20215;-66
2023/08/11 05:31:52;;;;;;;7.00;6.30;;;;;;;15.71;86.20;101677.91;5015157;28;20191;-66
2023/08/11 05:34:19;;;;;;;7.17;6.90;;;;;;;15.76;86.22;101680.97;5014588;28;20239;-66
2023/08/11 05:36:45;;;;;;;11.70;7.43;;;;;;;15.79;85.91;101675.22;5014606;28;20184;-66
2023/08/11 05:39:12;;;;;;;7.73;7.23;;;;;;;15.82;85.53;101683.88;5013310;28;20184;-66
2023/08/11 05:41:40;;;;;;;7.80;7.07;;;;;;;15.88;85.77;101674.25;5014734;28;20672;-66
2023/08/11 05:44:07;;;;;;;8.40;7.60;;;;;;;15.98;85.36;101683.94;5014580;28;20215;-66
2023/08/11 05:46:33;;;;;;;8.07;7.23;;;;;;;16.07;85.47;101683.94;5014317;28;20217;-66
2023/08/11 05:48:59;;;;;;;7.97;7.33;;;;;;;16.14;85.00;101677.72;5014356;28;20197;-66
2023/08/11 05:51:26;;;;;;;15.60;7.83;;;;;;;16.23;85.30;101676.75;5014253;28;20193;-66
2023/08/11 05:53:53;;;;;;;8.00;7.60;;;;;;;16.33;84.48;101677.44;5014183;28;20270;-66
2023/08/11 05:56:20;;;;;;;7.67;6.87;;;;;;;16.43;84.57;101677.28;5014439;28;20203;-66
2023/08/11 05:58:46;;;;;;;8.10;7.20;;;;;;;16.52;83.68;101678.97;5014432;28;20589;-66
2023/08/11 06:01:12;;;;;;;8.37;7.30;;;;;;;16.62;83.62;101668.91;5014347;28;20197;-65
2023/08/11 06:03:39;;;;;;;8.47;7.77;;;;;;;16.74;83.43;101672.09;5014032;28;20207;-66
2023/08/11 06:06:05;;;;;;;8.83;8.30;;;;;;;16.83;82.01;101665.69;5014226;28;20308;-65
2023/08/11 06:08:32;;;;;;;9.07;8.43;;;;;;;16.93;81.17;101671.75;5013942;28;20196;-65
2023/08/11 06:10:59;;;;;;;7.83;7.30;;;;;;;17.01;81.56;101663.66;5014015;28;20699;-65
2023/08/11 06:13:27;;;;;;;12.13;7.67;;;;;;;17.08;80.19;101659.25;5013784;28;20196;-65
2023/08/11 06:15:53;;;;;;;8.50;6.77;;;;;;;17.15;79.27;101660.25;5014121;28;20208;-65
2023/08/11 06:18:20;;;;;;;6.37;6.17;;;;;;;17.24;79.24;101655.69;5013865;28;20280;-65
2023/08/11 06:20:47;;;;;;;5.60;5.27;;;;;;;17.36;79.56;101659.69;5013855;28;20682;-65
2023/08/11 06:23:13;;;;;;;5.33;5.07;;;;;;;17.46;79.03;101652.25;5013712;28;20212;-66
2023/08/11 06:25:40;;;;;;;5.97;5.53;;;;;;;17.59;79.18;101655.28;5013725;28;20224;-66
2023/08/11 06:28:07;;;;;;;5.73;5.47;;;;;;;17.70;78.43;101654.03;5013776;28;20193;-66
2023/08/11 06:30:34;;;;;;;5.43;5.13;;;;;;;17.81;78.35;101653.66;5013477;28;20271;-66
2023/08/11 06:33:01;;;;;;;4.93;4.63;;;;;;;17.89;78.36;101652.78;5013637;28;20196;-66
2023/08/11 06:35:27;;;;;;;5.03;4.77;;;;;;;17.96;78.08;101654.59;5013604;28;20208;-66
2023/08/11 06:37:54;;;;;;;5.17;4.67;;;;;;;18.00;77.57;101652.38;5013844;28;20567;-66
2023/08/11 06:40:21;;;;;;;5.30;5.07;;;;;;;18.03;77.17;101654.75;5014397;28;20559;-66
2023/08/11 06:42:48;;;;;;;5.87;5.30;;;;;;;18.11;77.35;101658.25;5013535;28;20191;-66
2023/08/11 06:45:14;;;;;;;7.97;5.97;;;;;;;18.20;76.28;101659.84;5012111;28;20306;-66
2023/08/11 06:47:41;;;;;;;8.60;6.03;;;;;;;18.31;73.79;101663.19;5013505;28;20192;-66
2023/08/11 06:50:08;;;;;;;7.70;5.53;;;;;;;18.44;74.50;101658.03;5013473;28;20188;-66
2023/08/11 06:52:34;;;;;;;5.97;5.30;;;;;;;18.55;74.38;101660.34;5013428;28;20188;-66
2023/08/11 06:55:01;;;;;;;6.00;5.37;;;;;;;18.61;73.81;101659.63;5013573;28;20219;-66
2023/08/11 06:57:27;;;;;;;4.97;4.77;;;;;;;18.64;73.95;101653.84;5014663;28;20192;-66
2023/08/11 06:59:53;;;;;;;5.13;4.93;;;;;;;18.64;73.60;101657.38;5018325;28;20188;-66
2023/08/11 07:02:20;;;;;;;5.30;5.00;;;;;;;18.70;74.15;101659.38;5017534;28;20655;-66
2023/08/11 07:04:48;;;;;;;5.93;5.40;;;;;;;18.79;73.28;101657.44;5018149;28;20580;-66
2023/08/11 07:07:14;;;;;;;6.53;4.70;;;;;;;18.95;73.23;101660.00;5017902;28;20216;-66
2023/08/11 07:09:41;;;;;;;7.83;4.47;;;;;;;19.02;72.92;101652.81;5017534;28;20195;-66
2023/08/11 07:12:07;;;;;;;6.00;5.53;;;;;;;19.09;72.61;101658.38;5017113;28;20612;-66
2023/08/11 07:14:34;;;;;;;4.60;4.40;;;;;;;19.14;71.85;101656.75;5017157;28;20266;-66
2023/08/11 07:17:00;;;;;;;4.93;4.50;;;;;;;19.38;70.43;101657.53;5017137;28;20188;-66
2023/08/11 07:19:27;;;;;;;10.03;5.73;;;;;;;19.29;70.47;101655.94;5017679;28;20640;-66
2023/08/11 07:21:53;;;;;;;6.40;6.03;;;;;;;19.31;70.09;101657.44;5017105;28;20585;-66
2023/08/11 07:24:20;;;;;;;8.57;5.90;;;;;;;19.35;70.55;101655.22;5017506;28;20208;-67
2023/08/11 07:26:46;;;;;;;5.10;5.00;;;;;;;19.43;68.90;101655.16;5017158;28;20258;-67
2023/08/11 07:29:13;;;;;;;6.47;5.93;;;;;;;19.54;68.46;101660.09;5017458;28;20189;-67
2023/08/11 07:31:39;;;;;;;5.60;5.30;;;;;;;19.59;68.49;101661.22;5017140;28;20258;-67
2023/08/11 07:34:06;;;;;;;5.97;5.57;;;;;;;19.70;68.63;101659.91;5016823;28;20217;-66
2023/08/11 07:36:32;;;;;;;8.03;5.90;;;;;;;19.84;68.68;101658.19;5016762;28;20188;-66
2023/08/11 07:38:59;;;;;;;9.00;5.40;;;;;;;20.01;68.62;101662.38;5016806;28;20187;-66
2023/08/11 07:41:45;;;;;;;8.90;7.37;;;;;;;20.03;68.50;101666.59;5017047;28;20264;-66
2023/08/11 07:44:12;;;;;;;16.80;7.90;;;;;;;20.12;67.59;101664.59;5016907;28;20644;-67
2023/08/11 07:46:38;;;;;;;6.87;6.60;;;;;;;20.11;68.47;101665.66;5016915;28;20213;-67
2023/08/11 07:49:05;;;;;;;7.20;6.57;;;;;;;20.20;67.02;101672.63;5016693;28;20193;-67
2023/08/11 07:51:31;;;;;;;6.03;5.73;;;;;;;20.28;65.22;101667.09;5016560;28;20597;-67
2023/08/11 07:53:58;;;;;;;5.20;4.80;;;;;;;20.35;65.66;101672.63;5016424;28;20557;-67
2023/08/11 07:56:24;;;;;;;4.13;4.13;;;;;;;20.47;66.29;101671.06;5016422;28;20192;-67
2023/08/11 07:58:52;;;;;;;5.87;5.47;;;;;;;20.93;63.01;101672.34;5016399;28;20219;-67
2023/08/11 08:01:19;;;;;;;4.20;4.00;;;;;;;20.68;64.87;101673.78;5016375;28;20615;-67
2023/08/11 08:03:46;;;;;;;3.87;3.67;;;;;;;20.66;65.34;101670.44;5016266;28;20204;-67
2023/08/11 08:06:13;;;;;;;5.63;4.10;;;;;;;20.90;64.01;101670.03;5016471;28;20236;-67
2023/08/11 08:08:39;;;;;;;3.93;3.27;;;;;;;20.87;65.83;101672.31;5016090;28;20609;-67
2023/08/11 08:11:06;;;;;;;4.03;3.77;;;;;;;21.10;64.44;101677.50;5016721;28;20193;-67
2023/08/11 08:13:32;;;;;;;8.27;7.67;;;;;;;21.12;63.71;101670.00;5016004;28;20220;-67
2023/08/11 08:15:59;;;;;;;9.03;4.40;;;;;;;21.36;62.93;101677.72;5016619;28;20192;-67
2023/08/11 08:18:27;;;;;;;4.23;3.87;;;;;;;21.20;63.42;101678.88;5016271;28;20291;-67
2023/08/11 08:20:54;;;;;;;4.00;3.70;;;;;;;21.14;64.97;101681.53;5016286;28;20625;-67
2023/08/11 08:23:21;;;;;;;4.47;3.97;;;;;;;21.45;61.73;101672.97;5015892;28;20224;-67
2023/08/11 08:25:48;;;;;;;4.60;3.83;;;;;;;21.40;62.58;101676.28;5015889;28;20200;-67
2023/08/11 08:28:14;;;;;;;9.33;5.40;;;;;;;21.28;62.12;101675.16;5016424;28;20243;-67
2023/08/11 08:30:41;;;;;;;6.73;3.43;;;;;;;21.27;63.17;101670.75;5016320;28;20189;-66
2023/08/11 08:33:07;;;;;;;6.37;4.10;;;;;;;21.43;62.88;101673.16;5015582;28;20212;-67
2023/08/11 08:35:35;;;;;;;3.73;3.63;;;;;;;21.38;64.05;101673.78;5016000;28;20195;-67
2023/08/11 08:38:01;;;;;;;4.30;3.63;;;;;;;21.35;64.09;101670.59;5015652;28;20655;-67
2023/08/11 08:40:28;;;;;;;9.90;3.20;;;;;;;21.92;60.69;101667.59;5015880;28;20203;-67
2023/08/11 08:42:55;;;;;;;3.40;3.17;;;;;;;21.77;61.63;101675.03;5015560;28;20189;-67
2023/08/11 08:45:22;;;;;;;3.40;3.27;;;;;;;21.76;62.12;101673.38;5015388;28;20209;-67
2023/08/11 08:47:49;;;;;;;5.70;3.53;;;;;;;22.32;59.50;101674.00;5015454;28;20659;-67
2023/08/11 08:50:17;;;;;;;5.20;3.70;;;;;;;22.07;60.89;101675.59;5015490;28;20188;-67
2023/08/11 08:52:43;;;;;;;3.27;3.27;;;;;;;22.23;59.17;101667.94;5014064;28;20188;-67
2023/08/11 08:55:10;;;;;;;4.10;4.00;;;;;;;22.23;60.16;101667.94;5014241;28;20247;-67
2023/08/11 08:57:37;;;;;;;3.00;2.90;;;;;;;22.68;57.83;101668.22;5015333;28;20659;-67
2023/08/11 09:00:04;;;;;;;3.50;3.27;;;;;;;22.71;57.87;101670.56;5015522;28;20192;-67
2023/08/11 09:02:31;;;;;;;5.00;3.73;;;;;;;22.50;58.37;101663.38;5015497;28;20200;-67
2023/08/11 09:04:58;;;;;;;3.03;2.93;;;;;;;22.81;58.60;101667.44;5013890;28;20248;-67
2023/08/11 09:07:24;;;;;;;3.63;3.42;;;;;;;23.02;58.14;101670.78;5015121;28;20212;-67
2023/08/11 09:09:51;;;;;;;3.73;3.63;;;;;;;23.13;57.67;101670.16;5015059;28;20785;-67
2023/08/11 09:12:17;;;;;;;7.97;3.80;;;;;;;22.87;58.99;101672.91;5015066;28;20196;-67
2023/08/11 09:14:44;;;;;;;3.42;3.42;;;;;;;23.17;54.43;101667.81;5015192;28;20641;-67
2023/08/11 09:17:11;;;;;;;3.03;3.03;;;;;;;23.20;54.71;101668.28;5015201;28;20184;-67
2023/08/11 09:19:37;;;;;;;3.20;3.20;;;;;;;23.05;54.55;101661.34;5014898;28;20243;-67
2023/08/11 09:22:13;;;;;;;3.22;3.22;;;;;;;23.16;55.12;101666.16;5014359;28;20188;-67
2023/08/11 09:24:40;;;;;;;6.72;3.08;;;;;;;23.48;52.81;101665.28;5014773;28;20251;-67
2023/08/11 09:27:07;;;;;;;3.20;3.20;;;;;;;23.30;54.56;101662.34;5014698;28;20215;-67
2023/08/11 09:29:34;;;;;;;2.90;2.88;;;;;;;23.39;55.43;101657.50;5015218;28;20181;-67
2023/08/11 09:32:03;;;;;;;3.10;2.90;;;;;;;23.85;53.56;101651.97;5014900;28;20659;-67
2023/08/11 09:34:30;;;;;;;2.90;2.90;;;;;;;23.68;54.20;101657.88;5015310;28;20694;-67
2023/08/11 09:36:56;;;;;;;6.53;4.15;;;;;;;23.67;55.11;101656.22;5015115;28;20188;-67
2023/08/11 09:39:26;;;;;;;3.67;3.30;;;;;;;23.75;54.82;101657.88;5014538;28;20188;-67
2023/08/11 09:41:53;;;;;;;15.10;3.13;;;;;;;23.99;53.73;101654.41;5014565;28;20189;-67
2023/08/11 09:44:23;;;;;;;3.90;3.50;;;;;;;23.98;54.13;101655.47;5014533;28;20220;-67
2023/08/11 09:46:50;;;;;;;5.85;3.50;;;;;;;24.01;54.61;101646.84;5014620;28;20204;-67
2023/08/11 09:49:17;;;;;;;4.50;3.03;;;;;;;24.24;53.55;101649.06;5014896;28;20708;-67
2023/08/11 09:51:45;;;;;;;3.50;3.22;;;;;;;24.10;54.45;101650.16;5014310;28;20673;-67
2023/08/11 09:54:14;;;;;;;3.65;3.63;;;;;;;24.16;53.58;101656.66;5014198;28;20695;-67
2023/08/11 09:56:42;;;;;;;4.25;3.47;;;;;;;24.51;51.13;101663.41;5014215;28;20195;-67
2023/08/11 09:59:16;;;;;;;3.53;3.50;;;;;;;24.38;52.57;101656.13;5014182;28;20677;-67
2023/08/11 10:01:44;;;;;;;3.30;2.95;;;;;;;24.33;53.34;101655.09;5014461;28;20645;-67
2023/08/11 10:04:37;;;;;;;4.25;3.95;;;;;;;24.87;52.20;101668.19;5014031;28;20209;-67
2023/08/11 10:07:14;;;;;;;3.00;3.00;;;;;;;24.80;47.52;101664.66;5014337;28;20251;-67
2023/08/11 10:09:43;;;;;;;3.25;3.15;;;;;;;24.72;48.74;101668.50;5014037;28;20234;-67
2023/08/11 10:12:11;;;;;;;4.03;3.95;;;;;;;24.74;50.33;101662.84;5013823;28;20207;-67
2023/08/11 10:14:39;;;;;;;5.65;4.00;;;;;;;24.69;48.53;101665.38;5013878;28;20212;-67
2023/08/11 10:17:06;;;;;;;3.50;3.40;;;;;;;24.71;46.39;101666.81;5013899;28;20184;-67
2023/08/11 10:19:33;;;;;;;2.75;2.75;;;;;;;24.55;48.88;101654.53;5013873;28;20231;-67
2023/08/11 10:21:59;;;;;;;3.13;3.10;;;;;;;24.54;49.19;101663.78;5013809;28;20235;-67
2023/08/11 10:24:26;;;;;;;3.05;3.03;;;;;;;24.67;50.66;101659.28;5013974;28;20274;-67
2023/08/11 10:26:53;;;;;;;5.43;3.40;;;;;;;24.71;51.45;101650.41;5013965;28;20212;-67
2023/08/11 10:29:21;;;;;;;7.53;3.35;;;;;;;24.96;46.63;101642.25;5013727;28;20247;-67
2023/08/11 10:31:56;;;;;;;3.50;3.30;;;;;;;25.07;47.21;101644.25;5013051;28;20199;-67
2023/08/11 10:34:25;;;;;;;3.35;3.30;;;;;;;25.27;44.83;101641.31;5013670;28;20760;-67
2023/08/11 10:36:56;;;;;;;2.67;2.67;;;;;;;25.09;47.86;101638.56;5014134;28;20191;-67
2023/08/11 10:39:23;;;;;;;4.30;4.20;;;;;;;25.18;48.17;101635.31;5013881;28;20694;-67
2023/08/11 10:41:50;;;;;;;13.02;3.70;;;;;;;25.27;49.37;101641.31;5013559;28;20275;-67
2023/08/11 10:44:26;;;;;;;5.10;3.58;;;;;;;25.38;46.66;101635.94;5028712;28;20240;-67
2023/08/11 10:46:52;;;;;;;3.15;3.00;;;;;;;25.13;48.36;101635.13;5013764;28;20203;-67
2023/08/11 10:49:32;;;;;;;3.45;3.25;;;;;;;25.07;48.33;101633.31;5013741;28;20212;-67
2023/08/11 10:52:01;;;;;;;4.63;3.30;;;;;;;25.26;46.35;101634.16;5013858;28;20172;-67
2023/08/11 10:54:27;;;;;;;3.15;3.13;;;;;;;25.44;46.42;101628.72;5013671;28;20213;-67
2023/08/11 10:56:54;;;;;;;2.90;2.90;;;;;;;25.51;47.46;101623.16;5013692;28;20664;-67
2023/08/11 10:59:25;;;;;;;3.72;3.42;;;;;;;25.58;46.47;101618.50;5013393;28;20192;-67
2023/08/11 11:01:53;;;;;;;3.33;3.20;;;;;;;25.80;47.56;101623.25;5013411;28;20189;-68
2023/08/11 11:04:22;;;;;;;3.13;3.13;;;;;;;25.81;45.09;101624.09;5013349;28;20578;-67
2023/08/11 11:06:53;;;;;;;3.22;3.10;;;;;;;25.71;44.94;101619.16;5013253;28;20201;-67
2023/08/11 11:09:19;;;;;;;3.03;3.03;;;;;;;25.78;45.55;101621.81;5013327;28;20582;-67
2023/08/11 11:11:51;;;;;;;3.13;3.13;;;;;;;25.77;44.95;101617.38;5013173;28;20685;-67
2023/08/11 11:14:17;;;;;;;3.33;3.33;;;;;;;25.90;44.77;101625.44;5013317;28;20223;-67
2023/08/11 11:16:44;;;;;;;3.55;3.33;;;;;;;25.77;44.31;101625.63;5013256;28;20189;-67
2023/08/11 11:19:10;;;;;;;3.70;3.60;;;;;;;25.75;48.07;101625.88;5013791;28;20185;-67
2023/08/11 11:21:40;;;;;;;3.30;3.30;;;;;;;25.87;46.40;101626.75;5013460;28;20268;-67
2023/08/11 11:24:07;;;;;;;4.00;3.80;;;;;;;25.74;46.34;101629.66;5013120;28;20627;-68
2023/08/11 11:26:34;;;;;;;4.20;3.95;;;;;;;25.81;46.00;101627.66;5013102;28;20278;-68